Time;durP1;ratioP1;P1;durP2;ratioP2;P2;SDS_P1;SDS_P2;PMS_P1;PMS_P2;Temp;Humidity;BMP_temperature;BMP_pressure;BME280_temperature;BME280_humidity;BME280_pressure;Samples;Min_cycle;Max_cycle;Signal;HPM_P1;HPM_P2
2022/01/04 00:00:53;;;;;;;19.95;14.88;;;;;;;10.15;69.86;100193.44;4947037;28;102505;-49
2022/01/04 00:03:20;;;;;;;21.70;14.67;;;;;;;10.14;70.19;100189.09;4952158;28;102663;-51
2022/01/04 00:05:46;;;;;;;19.55;14.40;;;;;;;10.15;70.10;100195.34;4956978;28;102264;-50
2022/01/04 00:08:13;;;;;;;22.02;14.13;;;;;;;10.15;70.44;100206.22;4953427;28;103126;-49
2022/01/04 00:10:42;;;;;;;20.80;14.82;;;;;;;10.15;70.30;100208.94;4953868;28;103663;-49
2022/01/04 00:13:23;;;;;;;19.00;14.20;;;;;;;10.15;70.11;100212.47;4954783;28;102211;-50
2022/01/04 00:15:51;;;;;;;19.77;13.95;;;;;;;10.15;70.66;100212.47;4937433;28;102281;-49
2022/01/04 00:18:18;;;;;;;19.50;14.32;;;;;;;10.15;70.55;100217.91;4936785;28;104386;-50
2022/01/04 00:20:46;;;;;;;20.33;15.30;;;;;;;10.15;70.23;100217.09;4926581;28;102209;-50
2022/01/04 00:23:13;;;;;;;20.70;15.05;;;;;;;10.14;70.25;100210.84;4954078;28;104086;-49
2022/01/04 00:25:40;;;;;;;18.25;14.07;;;;;;;10.13;69.81;100220.09;4940392;28;104131;-49
2022/01/04 00:28:14;;;;;;;19.65;13.85;;;;;;;10.15;69.85;100223.34;4938023;28;104225;-54
2022/01/04 00:30:41;;;;;;;19.75;14.45;;;;;;;10.15;70.47;100217.91;4953823;28;102518;-50
2022/01/04 00:33:11;;;;;;;18.92;14.10;;;;;;;10.14;70.32;100224.44;4952035;28;102966;-49
2022/01/04 00:35:39;;;;;;;18.27;13.50;;;;;;;10.15;70.07;100234.22;4954739;28;102833;-49
2022/01/04 00:38:06;;;;;;;19.15;14.50;;;;;;;10.14;70.02;100232.59;4952062;28;104016;-49
2022/01/04 00:40:32;;;;;;;18.95;13.43;;;;;;;10.15;70.15;100227.97;4940288;28;102687;-50
2022/01/04 00:42:59;;;;;;;17.25;13.60;;;;;;;10.14;70.48;100227.16;4928692;28;102455;-50
2022/01/04 00:45:27;;;;;;;19.02;14.27;;;;;;;10.15;70.63;100227.97;4948025;28;102263;-50
2022/01/04 00:50:24;;;;;;;16.33;13.80;;;;;;;10.14;69.82;100232.59;4930182;28;102734;-49
2022/01/04 00:52:51;;;;;;;18.48;13.48;;;;;;;10.14;70.39;100238.03;4923545;28;102312;-49
2022/01/04 00:55:18;;;;;;;18.90;13.15;;;;;;;10.14;70.63;100229.88;4944166;28;102359;-50
2022/01/04 00:57:44;;;;;;;19.02;13.25;;;;;;;10.14;69.89;100240.75;4952287;28;103845;-50
2022/01/04 01:00:14;;;;;;;17.35;12.73;;;;;;;10.14;70.29;100243.47;4951738;28;102462;-49
2022/01/04 01:02:43;;;;;;;17.85;13.40;;;;;;;10.14;69.99;100229.88;4947603;28;101949;-49
2022/01/04 01:05:11;;;;;;;16.93;12.70;;;;;;;10.13;70.03;100225.53;4956212;28;102458;-49
2022/01/04 01:07:38;;;;;;;18.00;12.88;;;;;;;10.15;70.20;100226.06;4954047;28;103967;-49
2022/01/04 01:12:35;;;;;;;17.08;12.00;;;;;;;10.14;70.04;100229.06;4951555;28;102388;-49
2022/01/04 01:15:06;;;;;;;18.42;12.32;;;;;;;10.14;70.28;100223.63;4953483;28;102174;-49
2022/01/04 01:17:33;;;;;;;15.82;12.05;;;;;;;10.14;69.98;100226.34;4952686;28;105535;-49
2022/01/04 01:20:06;;;;;;;16.40;11.77;;;;;;;10.14;70.70;100232.59;4949995;28;102396;-49
2022/01/04 01:22:33;;;;;;;16.55;11.38;;;;;;;10.15;70.29;100233.41;4948488;28;102850;-49
2022/01/04 01:25:00;;;;;;;18.67;12.60;;;;;;;10.15;69.95;100227.97;4942698;28;102293;-49
2022/01/04 01:27:26;;;;;;;15.88;11.20;;;;;;;10.12;70.48;100234.78;4953114;28;103959;-50
2022/01/04 01:29:52;;;;;;;15.52;12.32;;;;;;;10.14;70.28;100231.78;4953568;28;102444;-49
2022/01/04 01:32:19;;;;;;;16.45;12.20;;;;;;;10.13;70.21;100233.69;4943757;28;102141;-49
2022/01/04 01:34:45;;;;;;;15.90;11.98;;;;;;;10.14;70.14;100232.59;4954202;28;102187;-49
2022/01/04 01:37:13;;;;;;;15.40;11.77;;;;;;;10.14;70.28;100234.50;4950180;28;103929;-49
2022/01/04 01:39:39;;;;;;;15.30;11.82;;;;;;;10.11;70.52;100233.97;4920998;28;102364;-50
2022/01/04 01:42:06;;;;;;;14.00;11.65;;;;;;;10.13;69.95;100233.69;4934174;28;102250;-50
2022/01/04 01:44:35;;;;;;;14.15;11.30;;;;;;;10.13;70.13;100236.41;4936158;28;102522;-50
2022/01/04 01:47:02;;;;;;;14.70;11.10;;;;;;;10.11;70.03;100233.16;4949921;28;103896;-49
2022/01/04 01:49:28;;;;;;;14.95;11.27;;;;;;;10.13;70.42;100244.56;4983372;28;103874;-49
2022/01/04 01:51:55;;;;;;;12.43;10.15;;;;;;;10.12;70.06;100253.81;4942251;28;102242;-49
2022/01/04 01:54:23;;;;;;;13.90;10.80;;;;;;;10.13;70.29;100258.16;4953775;28;102171;-49
2022/01/04 01:56:50;;;;;;;14.00;10.20;;;;;;;10.12;70.03;100253.81;4950314;28;103978;-50
2022/01/04 01:59:17;;;;;;;14.82;10.85;;;;;;;10.13;70.23;100258.16;4944364;28;102208;-49
2022/01/04 02:01:44;;;;;;;13.88;11.00;;;;;;;10.13;70.13;100258.16;4950027;28;102909;-49
2022/01/04 02:04:10;;;;;;;13.50;10.52;;;;;;;10.13;70.52;100258.16;4949706;28;102563;-49
2022/01/04 02:06:37;;;;;;;14.98;10.43;;;;;;;10.13;69.69;100260.88;4931781;28;104249;-49
2022/01/04 02:09:04;;;;;;;14.45;11.30;;;;;;;10.12;70.58;100259.25;4945594;28;102211;-50
2022/01/04 02:11:35;;;;;;;13.52;10.13;;;;;;;10.12;69.96;100259.25;4949181;28;102026;-49
2022/01/04 02:14:01;;;;;;;;;;;;;;;10.12;70.41;100259.25;4929075;28;102236;-50
2022/01/04 02:16:29;;;;;;;11.98;9.93;;;;;;;10.12;70.63;100264.69;4926120;28;104044;-49
2022/01/04 02:18:59;;;;;;;14.55;10.73;;;;;;;10.11;70.13;100269.31;4948191;28;102071;-50
2022/01/04 02:21:27;;;;;;;13.07;10.27;;;;;;;10.12;70.47;100275.56;4945230;28;102143;-49
2022/01/04 02:23:53;;;;;;;13.25;10.02;;;;;;;10.12;70.34;100272.84;4946105;28;102321;-49
2022/01/04 02:26:20;;;;;;;12.05;9.60;;;;;;;10.12;70.14;100283.72;4977402;28;102902;-49
2022/01/04 02:28:49;;;;;;;11.68;9.35;;;;;;;10.11;69.96;100288.34;4957894;28;102179;-49
2022/01/04 02:31:16;;;;;;;12.77;9.32;;;;;;;10.11;70.72;100291.06;4952681;28;102914;-49
2022/01/04 02:33:42;;;;;;;12.88;9.55;;;;;;;10.12;70.21;100289.16;4954908;28;102337;-49
2022/01/04 02:36:09;;;;;;;11.32;9.20;;;;;;;10.12;70.03;100289.16;4954939;28;104058;-49
2022/01/04 02:38:37;;;;;;;13.43;9.40;;;;;;;10.13;70.72;100296.22;4946722;28;102148;-49
2022/01/04 02:41:04;;;;;;;11.20;9.02;;;;;;;10.11;70.33;100298.41;4949992;28;102169;-50
2022/01/04 02:43:30;;;;;;;13.07;10.32;;;;;;;10.13;70.51;100296.22;4956790;28;102443;-52
2022/01/04 02:45:56;;;;;;;11.43;9.48;;;;;;;10.10;70.12;100286.72;4955028;28;103909;-50
2022/01/04 02:48:24;;;;;;;12.85;9.23;;;;;;;10.11;70.30;100293.78;4956725;28;102532;-51
2022/01/04 02:50:50;;;;;;;10.70;9.10;;;;;;;10.12;70.73;100302.75;4954876;28;102397;-49
2022/01/04 02:53:17;;;;;;;11.05;9.45;;;;;;;10.11;69.78;100298.41;4953828;28;102630;-50
2022/01/04 02:55:47;;;;;;;12.13;9.65;;;;;;;10.12;70.47;100305.47;4946789;28;103940;-49
2022/01/04 02:58:14;;;;;;;12.48;9.43;;;;;;;10.12;70.10;100300.03;4942245;28;102205;-49
2022/01/04 03:00:41;;;;;;;11.77;8.82;;;;;;;10.11;69.90;100298.41;4954518;28;102518;-49
2022/01/04 03:03:08;;;;;;;11.93;9.30;;;;;;;10.12;69.89;100310.91;4938013;28;106101;-49
2022/01/04 03:05:35;;;;;;;11.30;8.25;;;;;;;10.14;70.20;100314.19;4936427;28;103941;-49
2022/01/04 03:08:02;;;;;;;10.75;8.68;;;;;;;10.12;70.14;100316.34;4956040;28;102218;-49
2022/01/04 03:10:28;;;;;;;10.00;8.25;;;;;;;10.12;69.97;100316.34;4946243;28;102511;-49
2022/01/04 03:12:57;;;;;;;11.38;8.63;;;;;;;10.11;69.90;100314.72;4936298;28;103511;-48
2022/01/04 03:15:24;;;;;;;10.25;8.57;;;;;;;10.11;69.88;100310.09;4940252;28;103973;-50
2022/01/04 03:17:51;;;;;;;9.77;8.00;;;;;;;10.11;70.46;100315.53;4946091;28;102671;-49
2022/01/04 03:20:18;;;;;;;11.18;8.25;;;;;;;10.12;70.38;100324.50;4943101;28;105439;-49
2022/01/04 03:22:45;;;;;;;11.07;8.45;;;;;;;10.11;70.16;100320.97;4945633;28;102329;-50
2022/01/04 03:25:12;;;;;;;12.82;8.50;;;;;;;10.11;70.38;100325.59;4936680;28;103842;-50
2022/01/04 03:27:38;;;;;;;9.77;8.15;;;;;;;10.12;70.21;100327.22;4936231;28;102273;-49
2022/01/04 03:30:08;;;;;;;10.75;8.07;;;;;;;10.11;70.12;100325.59;4944318;28;101966;-49
2022/01/04 03:32:36;;;;;;;10.20;8.25;;;;;;;10.12;70.16;100327.22;4955015;28;102178;-51
2022/01/04 03:35:02;;;;;;;10.27;8.38;;;;;;;10.13;70.45;100334.28;4946144;28;103990;-49
2022/01/04 03:37:29;;;;;;;8.82;7.30;;;;;;;10.12;70.32;100329.94;4954302;28;102518;-49
2022/01/04 03:39:55;;;;;;;9.23;7.15;;;;;;;10.11;69.71;100336.47;4955212;28;102402;-50
2022/01/04 03:42:22;;;;;;;9.18;7.78;;;;;;;10.11;69.78;100336.47;4950526;28;102253;-49
2022/01/04 03:44:48;;;;;;;9.70;7.75;;;;;;;10.13;70.53;100339.72;4943959;28;104027;-50
2022/01/04 03:47:16;;;;;;;8.82;7.68;;;;;;;10.11;70.62;100341.91;4949388;28;102060;-50
2022/01/04 03:49:43;;;;;;;7.82;7.03;;;;;;;10.11;70.26;100353.59;4954425;28;102612;-50
2022/01/04 03:52:10;;;;;;;8.70;7.68;;;;;;;10.12;70.65;100365.28;4954602;28;102234;-49
2022/01/04 03:54:36;;;;;;;9.07;7.50;;;;;;;10.10;70.64;100362.88;4953308;28;103929;-50
2022/01/04 03:57:02;;;;;;;10.07;7.63;;;;;;;10.11;70.69;100369.13;4954046;28;102128;-50
2022/01/04 03:59:29;;;;;;;9.45;7.28;;;;;;;10.11;70.26;100369.13;4954832;28;102283;-49
2022/01/04 04:01:55;;;;;;;10.07;7.25;;;;;;;10.11;70.12;100369.13;4951383;28;102648;-49
2022/01/04 04:04:25;;;;;;;8.80;7.70;;;;;;;10.11;70.63;100374.56;4940389;28;103875;-49
2022/01/04 04:06:51;;;;;;;9.00;7.05;;;;;;;10.11;69.86;100386.25;4921526;28;102092;-49
2022/01/04 04:09:18;;;;;;;7.88;6.85;;;;;;;10.12;69.94;100387.03;4944544;28;102350;-49
2022/01/04 04:11:44;;;;;;;7.80;6.90;;;;;;;10.11;70.80;100386.25;4953641;28;102165;-49
2022/01/04 04:14:10;;;;;;;8.63;6.60;;;;;;;10.11;70.58;100390.88;4941421;28;103908;-49
2022/01/04 04:16:37;;;;;;;8.77;6.78;;;;;;;10.10;70.16;100395.50;4950643;28;102219;-49
2022/01/04 04:19:04;;;;;;;8.35;6.85;;;;;;;10.11;69.99;100402.56;4951921;28;102248;-49
2022/01/04 04:21:34;;;;;;;;;;;;;;;10.11;70.40;100401.75;4954924;28;102456;-49
2022/01/04 04:24:01;;;;;;;8.30;5.95;;;;;;;10.11;70.06;100408.00;4953608;28;103912;-50
2022/01/04 04:26:28;;;;;;;7.80;6.32;;;;;;;10.10;70.20;100417.25;4948957;28;102449;-51
2022/01/04 04:28:54;;;;;;;8.07;6.35;;;;;;;10.11;70.26;100418.06;4955264;28;102514;-49
2022/01/04 04:31:20;;;;;;;9.05;6.55;;;;;;;10.11;70.12;100424.31;4952918;28;102325;-49
2022/01/04 04:33:47;;;;;;;6.47;5.70;;;;;;;10.11;70.54;100413.44;4954103;28;103400;-49
2022/01/04 04:36:15;;;;;;;7.05;5.63;;;;;;;10.10;70.24;100417.25;4953848;28;102607;-49
2022/01/04 04:38:42;;;;;;;7.13;5.93;;;;;;;10.11;70.31;100418.06;4951654;28;102941;-49
2022/01/04 04:41:09;;;;;;;7.47;6.07;;;;;;;10.10;70.23;100424.59;4954697;28;102187;-49
2022/01/04 04:43:35;;;;;;;7.10;5.50;;;;;;;10.10;70.25;100419.97;4959334;28;102707;-49
2022/01/04 04:46:01;;;;;;;6.20;5.57;;;;;;;10.10;70.26;100419.97;4949242;28;102568;-49
2022/01/04 04:48:29;;;;;;;6.70;5.32;;;;;;;10.11;70.17;100431.66;4947527;28;103168;-50
2022/01/04 04:50:56;;;;;;;7.07;5.68;;;;;;;10.11;69.83;100431.66;4951349;28;102513;-49
2022/01/04 04:53:22;;;;;;;6.45;5.82;;;;;;;10.11;70.41;100431.66;4945584;28;103963;-49
2022/01/04 04:55:50;;;;;;;6.03;5.13;;;;;;;10.11;69.87;100434.38;4952561;28;102112;-50
2022/01/04 04:58:17;;;;;;;6.25;5.65;;;;;;;10.10;70.49;100444.44;4953611;28;102788;-49
2022/01/04 05:00:44;;;;;;;6.55;5.38;;;;;;;10.11;69.88;100446.06;4949373;28;102445;-49
2022/01/04 05:03:10;;;;;;;6.20;5.05;;;;;;;10.11;70.12;100450.69;4921585;28;103704;-49
2022/01/04 05:05:37;;;;;;;5.85;5.03;;;;;;;10.10;69.90;100452.59;4954367;28;103973;-49
2022/01/04 05:08:04;;;;;;;6.03;4.88;;;;;;;10.11;70.35;100450.69;4954225;28;102040;-49
2022/01/04 05:10:31;;;;;;;7.65;5.35;;;;;;;10.11;70.39;100451.50;4941859;28;102280;-49
2022/01/04 05:13:01;;;;;;;6.05;5.00;;;;;;;10.11;70.16;100450.69;4941461;28;103751;-49
2022/01/04 05:15:28;;;;;;;6.10;5.03;;;;;;;10.10;70.35;100454.50;4949133;28;102380;-50
2022/01/04 05:17:54;;;;;;;7.03;5.22;;;;;;;10.11;70.70;100453.41;4953950;28;102480;-49
2022/01/04 05:20:20;;;;;;;5.10;4.60;;;;;;;10.12;70.76;100463.19;4933793;28;102316;-49
2022/01/04 05:22:47;;;;;;;5.80;4.97;;;;;;;10.12;70.62;100457.75;4930660;28;103718;-50
2022/01/04 05:25:13;;;;;;;5.00;4.50;;;;;;;10.10;70.31;100459.94;4934923;28;102386;-49
2022/01/04 05:27:40;;;;;;;6.28;4.53;;;;;;;10.10;70.02;100459.94;4919483;28;102319;-49
2022/01/04 05:30:08;;;;;;;5.82;5.00;;;;;;;10.10;70.42;100463.47;4938811;28;102304;-49
2022/01/04 05:32:36;;;;;;;5.57;4.45;;;;;;;10.10;70.40;100465.38;4936414;28;103932;-49
2022/01/04 05:35:03;;;;;;;5.18;4.20;;;;;;;10.10;70.33;100466.19;4920732;28;102178;-50
2022/01/04 05:37:29;;;;;;;5.22;4.72;;;;;;;10.10;70.17;100481.69;4935756;28;102223;-50
2022/01/04 05:39:56;;;;;;;5.88;4.68;;;;;;;10.10;69.96;100487.94;4930880;28;102206;-51
2022/01/04 05:42:22;;;;;;;6.05;4.55;;;;;;;10.11;70.09;100494.19;4906339;28;104162;-49
2022/01/04 05:44:49;;;;;;;5.60;4.32;;;;;;;10.11;70.34;100507.78;4916099;28;102807;-49
2022/01/04 05:47:17;;;;;;;5.57;4.55;;;;;;;10.11;70.28;100502.34;4919230;28;102326;-57
2022/01/04 05:49:43;;;;;;;5.07;4.22;;;;;;;10.11;69.78;100513.22;4932299;28;102378;-49
2022/01/04 05:52:09;;;;;;;4.47;4.07;;;;;;;10.11;70.25;100511.31;4930655;28;104120;-49
2022/01/04 05:54:36;;;;;;;5.10;4.10;;;;;;;10.11;69.99;100515.94;4935320;28;102313;-49
2022/01/04 05:57:02;;;;;;;4.40;4.00;;;;;;;10.12;69.84;100520.28;4928236;28;102538;-49
2022/01/04 05:59:29;;;;;;;4.75;4.15;;;;;;;10.10;70.35;100515.13;4916433;28;102493;-50
2022/01/04 06:01:55;;;;;;;4.30;3.88;;;;;;;10.11;70.58;100508.59;4920120;28;104181;-49
2022/01/04 06:04:23;;;;;;;4.88;4.15;;;;;;;10.11;70.74;100515.94;4917223;28;102257;-49
2022/01/04 06:06:50;;;;;;;4.60;4.20;;;;;;;10.11;70.47;100516.75;4915908;28;102380;-50
2022/01/04 06:09:23;;;;;;;5.57;4.10;;;;;;;10.11;70.27;100524.09;4935264;28;102275;-49
2022/01/04 06:17:02;;;;;;;4.95;3.80;;;;;;;10.11;70.12;100537.69;4934053;28;102395;-49
2022/01/04 06:19:30;;;;;;;5.60;4.60;;;;;;;10.11;70.58;100543.13;4946942;28;102873;-49
2022/01/04 06:21:56;;;;;;;4.25;3.85;;;;;;;10.11;69.92;100549.38;4950576;28;105442;-50
2022/01/04 06:24:23;;;;;;;4.45;3.63;;;;;;;10.12;70.37;100544.75;4955827;28;102226;-49
2022/01/04 06:26:52;;;;;;;4.30;3.60;;;;;;;10.11;70.25;100541.22;4939268;28;102876;-49
2022/01/04 06:29:22;;;;;;;4.43;3.70;;;;;;;10.12;69.83;100550.19;4947103;28;102666;-50
2022/01/04 06:31:48;;;;;;;4.40;3.65;;;;;;;10.11;70.25;100551.28;4935541;28;103837;-50
2022/01/04 06:34:14;;;;;;;4.35;3.90;;;;;;;10.13;70.57;100559.97;4948729;28;102826;-49
2022/01/04 06:36:42;;;;;;;5.20;4.22;;;;;;;10.13;70.10;100562.69;4949621;28;102270;-49
2022/01/04 06:39:08;;;;;;;4.20;3.80;;;;;;;10.12;70.22;100566.50;4949065;28;102579;-50
2022/01/04 06:41:35;;;;;;;4.28;3.60;;;;;;;10.13;70.39;100576.28;4980775;28;105300;-49
2022/01/04 06:44:01;;;;;;;4.18;3.72;;;;;;;10.14;70.14;100572.50;4948713;28;102434;-49
2022/01/04 06:46:28;;;;;;;4.07;3.67;;;;;;;10.15;70.49;100578.75;4943795;28;102016;-49
2022/01/04 06:48:54;;;;;;;4.65;3.92;;;;;;;10.14;70.44;100580.66;4951562;28;102225;-50
2022/01/04 06:51:21;;;;;;;4.13;3.70;;;;;;;10.15;70.04;100584.19;4928660;28;104658;-50
2022/01/04 06:53:48;;;;;;;4.63;3.78;;;;;;;10.14;70.32;100586.09;4949387;28;102475;-49
2022/01/04 06:56:15;;;;;;;4.07;3.67;;;;;;;10.15;69.94;100587.72;4953525;28;102464;-49
2022/01/04 06:58:41;;;;;;;4.22;3.72;;;;;;;10.15;70.26;100582.28;4970119;28;102200;-49
2022/01/04 07:01:08;;;;;;;4.55;3.95;;;;;;;10.16;70.48;100588.53;4949886;28;103901;-49
2022/01/04 07:03:36;;;;;;;5.45;4.28;;;;;;;10.15;70.60;100576.84;4947967;28;102408;-49
2022/01/04 07:06:02;;;;;;;5.93;4.32;;;;;;;10.16;70.30;100586.63;4953176;28;102349;-49
2022/01/04 07:08:30;;;;;;;4.70;4.20;;;;;;;10.16;70.91;100594.78;4954597;28;104722;-49
2022/01/04 07:10:58;;;;;;;4.30;3.72;;;;;;;10.15;70.20;100595.88;4953188;28;103707;-50
2022/01/04 07:13:24;;;;;;;4.18;3.78;;;;;;;10.17;70.83;100590.16;4936598;28;102940;-50
2022/01/04 07:15:52;;;;;;;4.57;3.80;;;;;;;10.15;70.35;100593.16;4945229;28;102123;-49
2022/01/04 07:18:18;;;;;;;4.28;3.88;;;;;;;10.17;69.96;100595.59;4954574;28;102880;-50
2022/01/04 07:20:45;;;;;;;4.28;3.35;;;;;;;10.17;70.49;100595.59;4950659;28;104122;-50
2022/01/04 07:23:12;;;;;;;4.18;3.78;;;;;;;10.17;70.02;100601.88;4951579;28;102100;-49
2022/01/04 07:25:39;;;;;;;5.10;4.07;;;;;;;10.17;70.69;100598.31;4951834;28;102271;-49
2022/01/04 07:28:07;;;;;;;4.78;3.70;;;;;;;10.16;70.15;100602.13;4937237;28;102505;-49
2022/01/04 07:30:35;;;;;;;4.60;4.13;;;;;;;10.17;70.26;100601.88;4928509;28;107841;-49
2022/01/04 07:33:02;;;;;;;4.70;3.70;;;;;;;10.16;70.63;100611.09;4924397;28;102517;-49
2022/01/04 07:35:29;;;;;;;5.50;3.78;;;;;;;10.17;69.99;100612.75;4934203;28;103038;-49
2022/01/04 07:37:55;;;;;;;4.10;3.45;;;;;;;10.16;70.27;100605.66;4934181;28;103532;-49
2022/01/04 07:40:22;;;;;;;3.85;3.45;;;;;;;10.17;70.47;100611.91;4929686;28;103970;-49
2022/01/04 07:42:48;;;;;;;4.63;3.80;;;;;;;10.16;70.62;100613.81;4926477;28;103442;-50
2022/01/04 07:45:16;;;;;;;5.40;3.53;;;;;;;10.16;69.96;100616.53;4928162;28;102517;-50
2022/01/04 07:47:43;;;;;;;4.85;3.90;;;;;;;10.17;70.69;100623.63;4935258;28;102408;-49
2022/01/04 07:50:11;;;;;;;3.67;3.13;;;;;;;10.17;70.87;100618.19;4935034;28;103988;-49
2022/01/04 07:52:38;;;;;;;4.03;3.50;;;;;;;10.18;69.93;100619.81;4946364;28;102062;-50
2022/01/04 07:55:06;;;;;;;4.38;3.65;;;;;;;10.18;69.94;100627.16;4933050;28;102703;-51
2022/01/04 07:57:32;;;;;;;4.38;3.40;;;;;;;10.19;70.70;100618.72;4936059;28;102357;-49
2022/01/04 07:59:59;;;;;;;4.28;3.47;;;;;;;10.19;70.00;100621.44;4934721;28;103934;-51
2022/01/04 08:02:27;;;;;;;4.82;3.30;;;;;;;10.20;70.41;100620.34;4934108;28;102389;-50
2022/01/04 08:04:54;;;;;;;4.18;3.42;;;;;;;10.20;70.49;100612.19;4933156;28;102441;-49
2022/01/04 08:07:20;;;;;;;3.13;2.85;;;;;;;10.22;70.28;100615.47;4937684;28;103017;-50
2022/01/04 08:09:53;;;;;;;3.97;3.22;;;;;;;10.22;70.70;100618.19;4947426;28;104167;-50
2022/01/04 08:12:19;;;;;;;3.05;2.80;;;;;;;10.22;70.90;100615.47;4938966;28;102213;-49
2022/01/04 08:14:48;;;;;;;3.20;2.90;;;;;;;10.23;70.72;100613.56;4953545;28;102372;-50
2022/01/04 08:17:14;;;;;;;3.70;3.30;;;;;;;10.23;70.38;100622.53;4943019;28;102194;-49
2022/01/04 08:19:42;;;;;;;3.03;2.83;;;;;;;10.23;70.10;100627.97;4931388;28;103888;-49
2022/01/04 08:22:09;;;;;;;3.42;3.10;;;;;;;10.22;70.82;100634.50;4931602;28;102146;-49
2022/01/04 08:24:35;;;;;;;3.17;2.80;;;;;;;10.24;70.69;100640.50;4946151;28;102837;-49
2022/01/04 08:27:02;;;;;;;4.35;3.28;;;;;;;10.25;70.29;100644.03;4953516;28;104125;-51
2022/01/04 08:29:31;;;;;;;3.45;2.63;;;;;;;10.24;70.60;100640.50;4941908;28;104012;-49
2022/01/04 08:31:57;;;;;;;3.17;2.88;;;;;;;10.24;70.25;100640.50;4943895;28;102211;-49
2022/01/04 08:34:23;;;;;;;3.72;3.15;;;;;;;10.26;70.51;100632.09;4952653;28;102404;-50
2022/01/04 08:36:51;;;;;;;4.38;3.35;;;;;;;10.26;70.42;100632.91;4956007;28;102292;-50
2022/01/04 08:39:19;;;;;;;4.18;3.13;;;;;;;10.26;69.98;100643.78;4953644;28;104080;-49
2022/01/04 08:41:46;;;;;;;3.10;2.80;;;;;;;10.27;70.60;100639.16;4952385;28;102391;-49
2022/01/04 08:44:13;;;;;;;4.03;3.20;;;;;;;10.27;70.65;100648.13;4951918;28;102215;-49
2022/01/04 08:46:40;;;;;;;4.32;3.10;;;;;;;10.28;70.29;100651.69;4956094;28;102424;-49
2022/01/04 08:49:07;;;;;;;4.63;2.58;;;;;;;10.28;70.38;100651.69;4931700;28;104073;-49
2022/01/04 08:51:34;;;;;;;3.67;3.03;;;;;;;10.28;70.29;100659.84;4941771;28;102045;-49
2022/01/04 08:54:03;;;;;;;4.75;3.08;;;;;;;10.29;70.02;100659.56;4932169;28;102137;-49
2022/01/04 08:56:29;;;;;;;4.45;3.20;;;;;;;10.28;70.45;100652.50;4935393;28;102687;-50
2022/01/04 08:58:56;;;;;;;4.70;3.13;;;;;;;10.28;70.08;100649.78;4941469;28;103973;-50
2022/01/04 09:01:22;;;;;;;3.30;2.97;;;;;;;10.28;70.04;100649.78;4942892;28;103114;-50
2022/01/04 09:03:50;;;;;;;3.67;3.25;;;;;;;10.29;70.63;100647.88;4944309;28;102116;-50
2022/01/04 09:06:17;;;;;;;7.80;2.92;;;;;;;10.28;70.62;100657.94;4943098;28;102128;-49
2022/01/04 09:08:46;;;;;;;5.22;3.38;;;;;;;10.29;70.20;100651.41;4945631;28;104253;-49
2022/01/04 09:11:15;;;;;;;3.70;2.78;;;;;;;10.29;69.98;100643.25;4951328;28;102411;-49
2022/01/04 09:14:11;;;;;;;3.60;3.25;;;;;;;10.30;70.56;100634.00;4936288;28;102117;-49
2022/01/04 09:19:27;;;;;;;4.63;2.92;;;;;;;10.30;70.46;100623.09;4939136;28;108197;-49
2022/01/04 09:21:54;;;;;;;3.67;3.00;;;;;;;10.31;70.50;100622.03;4931717;28;102493;-49
2022/01/04 09:24:21;;;;;;;4.15;2.97;;;;;;;10.32;70.41;100617.41;4934011;28;102323;-52
2022/01/04 09:26:49;;;;;;;5.85;3.17;;;;;;;10.33;70.63;100616.31;4956166;28;102202;-49
2022/01/04 09:29:19;;;;;;;5.13;3.10;;;;;;;10.32;70.92;100620.94;4952972;28;103895;-50
2022/01/04 09:31:46;;;;;;;4.00;2.80;;;;;;;10.32;70.50;100615.50;4953776;28;102369;-50
2022/01/04 09:34:13;;;;;;;4.13;3.13;;;;;;;10.33;70.12;100610.88;4951310;28;102564;-50
2022/01/04 09:36:40;;;;;;;2.88;2.50;;;;;;;10.34;70.77;100616.03;4952989;28;102282;-49
2022/01/04 09:39:10;;;;;;;3.28;2.97;;;;;;;10.34;70.54;100618.75;4978398;28;103935;-49
2022/01/04 09:41:37;;;;;;;3.80;2.80;;;;;;;10.34;70.24;100621.47;4927362;28;103066;-49
2022/01/04 09:44:05;;;;;;;4.60;2.78;;;;;;;10.36;70.20;100620.41;4945661;28;102831;-49
2022/01/04 09:46:35;;;;;;;3.05;2.63;;;;;;;10.37;70.09;100624.75;4942807;28;103884;-49
2022/01/04 09:49:02;;;;;;;3.30;2.75;;;;;;;10.37;70.69;100619.31;4947217;28;103752;-49
2022/01/04 09:51:31;;;;;;;3.70;2.95;;;;;;;10.37;70.21;100622.03;4938441;28;102764;-49
2022/01/04 09:53:58;;;;;;;3.67;2.90;;;;;;;10.37;70.46;100624.75;4934510;28;102388;-50
2022/01/04 09:56:24;;;;;;;3.25;2.65;;;;;;;10.38;70.60;100623.66;4953003;28;103444;-50
2022/01/04 09:58:51;;;;;;;4.20;3.15;;;;;;;10.38;70.76;100619.03;4948998;28;103897;-49
2022/01/04 10:01:21;;;;;;;3.38;2.83;;;;;;;10.39;70.21;100617.16;4931867;28;102119;-48
2022/01/04 10:03:49;;;;;;;3.30;2.92;;;;;;;10.39;70.62;100622.59;4925794;28;102406;-48
2022/01/04 10:06:16;;;;;;;3.70;2.80;;;;;;;10.39;70.40;100619.88;4941280;28;102390;-49
2022/01/04 10:08:52;;;;;;;3.17;2.88;;;;;;;10.40;70.57;100626.94;4918335;28;103352;-49
2022/01/04 10:11:29;;;;;;;8.32;2.63;;;;;;;10.40;70.57;100632.38;4923335;28;102828;-48
2022/01/04 10:13:56;;;;;;;3.95;3.03;;;;;;;10.41;70.45;100634.00;4927150;28;102792;-48
2022/01/04 10:16:23;;;;;;;3.15;2.85;;;;;;;10.41;70.49;100628.56;4938355;28;102208;-49
2022/01/04 10:18:51;;;;;;;3.15;2.70;;;;;;;10.42;70.32;100619.31;4950289;28;104078;-49
2022/01/04 10:21:17;;;;;;;3.40;2.58;;;;;;;10.42;70.81;100619.31;4946363;28;102249;-48
2022/01/04 10:23:56;;;;;;;3.30;2.60;;;;;;;10.43;70.31;100610.88;4945203;28;102681;-48
2022/01/04 10:26:32;;;;;;;4.10;2.65;;;;;;;10.43;70.17;100610.06;4936580;28;105484;-48
2022/01/04 10:28:59;;;;;;;3.95;2.60;;;;;;;10.42;70.14;100609.25;4947654;28;103228;-49
2022/01/04 10:31:36;;;;;;;2.97;2.67;;;;;;;10.42;70.72;100613.84;4947356;28;102616;-48
2022/01/04 10:34:02;;;;;;;4.28;3.05;;;;;;;10.43;70.26;100620.94;4948888;28;102339;-49
2022/01/04 10:36:37;;;;;;;4.03;2.67;;;;;;;10.44;69.99;100608.97;4950935;28;102182;-48
2022/01/04 10:39:07;;;;;;;3.03;2.72;;;;;;;10.43;70.70;100620.94;4948384;28;107866;-49
2022/01/04 10:41:35;;;;;;;2.50;2.30;;;;;;;10.43;70.30;100616.31;4946563;28;104469;-49
2022/01/04 10:44:06;;;;;;;3.78;2.70;;;;;;;10.43;70.39;100626.41;4928750;28;102022;-49
2022/01/04 10:46:36;;;;;;;4.07;2.95;;;;;;;10.44;69.84;100622.56;4951951;28;103629;-48
2022/01/04 10:49:14;;;;;;;5.47;2.90;;;;;;;10.43;70.14;100621.75;4949319;28;103888;-48
2022/01/04 10:51:40;;;;;;;4.90;2.63;;;;;;;10.44;69.87;100623.38;4941342;28;102753;-49
2022/01/04 10:54:07;;;;;;;4.70;2.63;;;;;;;10.44;70.29;100617.13;4954261;28;102579;-48
2022/01/04 10:56:46;;;;;;;4.20;2.90;;;;;;;10.44;70.38;100617.13;4950151;28;102602;-49
2022/01/04 10:59:12;;;;;;;4.40;3.05;;;;;;;10.45;70.35;100624.19;4953541;28;103961;-50
2022/01/04 11:01:43;;;;;;;4.88;3.17;;;;;;;10.44;70.11;100623.38;4952715;28;102443;-49
2022/01/04 11:04:13;;;;;;;4.32;3.05;;;;;;;10.44;70.08;100617.94;4946260;28;102250;-49
2022/01/04 11:06:41;;;;;;;3.40;2.67;;;;;;;10.45;69.81;100622.28;4959959;28;102326;-49
2022/01/04 11:09:09;;;;;;;3.10;2.70;;;;;;;10.44;70.13;100623.38;4953103;28;103917;-48
2022/01/04 11:11:36;;;;;;;3.45;2.50;;;;;;;10.44;70.17;100619.84;4946180;28;102826;-49
2022/01/04 11:14:03;;;;;;;3.15;2.78;;;;;;;10.45;70.24;100624.19;4951254;28;102170;-50
2022/01/04 11:16:33;;;;;;;2.63;2.33;;;;;;;10.44;70.07;100622.56;4935533;28;102223;-48
2022/01/04 11:19:02;;;;;;;4.65;3.40;;;;;;;10.44;70.29;100623.38;4945929;28;104114;-49
2022/01/04 11:21:31;;;;;;;3.33;2.72;;;;;;;10.45;69.97;100626.91;4956902;28;103849;-49
2022/01/04 11:24:01;;;;;;;3.90;3.03;;;;;;;10.44;70.56;100622.56;4948479;28;102132;-48
2022/01/04 11:26:28;;;;;;;4.30;2.50;;;;;;;10.44;70.42;100622.56;4939861;28;102617;-49
2022/01/04 11:28:56;;;;;;;3.45;2.90;;;;;;;10.44;70.46;100617.94;4944520;28;103941;-49